Time;durP1;ratioP1;P1;durP2;ratioP2;P2;SDS_P1;SDS_P2;PMS_P1;PMS_P2;Temp;Humidity;BMP_temperature;BMP_pressure;BME280_temperature;BME280_humidity;BME280_pressure;Samples;Min_cycle;Max_cycle;Signal;HPM_P1;HPM_P2
2023/05/04 00:01:26;;;;;;;8.48;3.38;;;15.70;90.00;;;;;;4117188;28;20054;-53
2023/05/04 00:03:29;;;;;;;7.07;3.17;;;15.70;90.10;;;;;;4116267;28;20047;-53
2023/05/04 00:05:32;;;;;;;6.70;3.17;;;15.70;90.20;;;;;;4116859;28;20051;-53
2023/05/04 00:07:37;;;;;;;9.88;3.10;;;15.70;90.50;;;;;;4117052;28;20496;-54
2023/05/04 00:09:39;;;;;;;9.73;3.47;;;15.60;90.50;;;;;;4117181;28;20435;-53
2023/05/04 00:11:41;;;;;;;9.27;3.10;;;15.60;90.30;;;;;;4116810;28;20094;-53
2023/05/04 00:13:44;;;;;;;10.75;2.80;;;15.60;90.20;;;;;;4116022;28;20047;-53
2023/05/04 00:15:46;;;;;;;8.68;2.70;;;15.50;90.30;;;;;;4116620;28;20046;-54
2023/05/04 00:17:48;;;;;;;5.53;3.10;;;15.50;90.30;;;;;;4116908;28;20511;-53
2023/05/04 00:19:51;;;;;;;7.13;2.78;;;15.50;90.30;;;;;;4116778;28;20051;-53
2023/05/04 00:21:53;;;;;;;5.20;2.53;;;15.50;90.30;;;;;;4116820;28;20137;-52
2023/05/04 00:23:56;;;;;;;7.18;2.92;;;15.40;90.60;;;;;;4115957;28;20156;-52
2023/05/04 00:25:58;;;;;;;5.65;2.38;;;15.40;90.50;;;;;;4110777;28;20087;-53
2023/05/04 00:28:00;;;;;;;9.95;3.20;;;15.40;90.70;;;;;;4117185;28;20374;-54
2023/05/04 00:30:03;;;;;;;4.95;2.83;;;15.40;90.50;;;;;;4117048;28;20461;-54
2023/05/04 00:32:05;;;;;;;6.13;2.45;;;15.30;90.60;;;;;;4116887;28;20051;-54
2023/05/04 00:34:07;;;;;;;5.30;2.88;;;15.30;90.60;;;;;;4097896;29;20047;-56
2023/05/04 00:36:12;;;;;;;4.72;2.55;;;15.20;90.60;;;;;;4116713;28;20070;-54
2023/05/04 00:38:15;;;;;;;;;;;15.20;90.80;;;;;;4116981;28;20378;-53
2023/05/04 00:40:18;;;;;;;4.45;2.88;;;15.20;90.80;;;;;;4116440;28;19961;-53
2023/05/04 00:42:20;;;;;;;9.40;3.35;;;15.10;90.90;;;;;;4116189;28;20057;-54
2023/05/04 00:44:25;;;;;;;6.25;2.78;;;15.20;90.80;;;;;;4114813;28;20126;-54
2023/05/04 00:46:27;;;;;;;6.93;3.00;;;15.10;90.90;;;;;;4116343;28;20051;-54
2023/05/04 00:48:29;;;;;;;6.93;3.13;;;15.20;91.20;;;;;;4115969;28;20055;-53
2023/05/04 00:50:32;;;;;;;7.57;3.25;;;15.20;91.50;;;;;;4116694;28;20069;-53
2023/05/04 00:52:36;;;;;;;4.97;3.10;;;15.20;91.00;;;;;;4115599;28;20050;-54
2023/05/04 00:54:38;;;;;;;4.30;2.90;;;15.20;90.80;;;;;;4116107;28;20485;-52
2023/05/04 00:56:42;;;;;;;4.90;3.10;;;15.10;90.90;;;;;;4116409;28;20043;-51
2023/05/04 00:58:45;;;;;;;5.70;2.70;;;15.20;91.00;;;;;;4116473;28;20058;-50
2023/05/04 01:00:47;;;;;;;5.93;3.05;;;15.20;91.00;;;;;;4116186;28;20057;-52
2023/05/04 01:02:49;;;;;;;8.27;3.00;;;15.20;91.20;;;;;;4115144;28;20047;-51
2023/05/04 01:04:51;;;;;;;4.43;2.88;;;15.10;90.90;;;;;;4116103;28;20043;-53
2023/05/04 01:07:02;;;;;;;6.05;2.92;;;15.10;91.00;;;;;;4116417;28;20051;-54
2023/05/04 01:09:09;;;;;;;7.85;2.90;;;15.10;90.80;;;;;;4116034;28;20061;-52
2023/05/04 01:11:19;;;;;;;5.78;2.95;;;15.00;91.20;;;;;;4116059;28;20082;-52
2023/05/04 01:13:21;;;;;;;9.55;3.00;;;15.10;91.10;;;;;;4115200;28;20516;-51
2023/05/04 01:15:24;;;;;;;8.25;3.10;;;15.10;91.10;;;;;;4115885;28;20381;-54
2023/05/04 01:17:26;;;;;;;4.68;3.10;;;15.10;90.90;;;;;;4115564;28;20047;-54
2023/05/04 01:19:28;;;;;;;7.35;2.63;;;15.10;91.10;;;;;;4115765;28;20082;-55
2023/05/04 01:21:32;;;;;;;6.57;3.10;;;15.10;91.50;;;;;;4115972;28;20051;-54
2023/05/04 01:23:34;;;;;;;5.50;3.30;;;15.20;91.10;;;;;;4114765;28;20049;-55
2023/05/04 01:25:43;;;;;;;8.75;3.05;;;15.20;91.50;;;;;;4113414;28;20072;-55
2023/05/04 01:27:47;;;;;;;6.32;2.88;;;15.20;91.40;;;;;;4115863;28;20050;-53
2023/05/04 01:29:53;;;;;;;;;;;15.20;91.40;;;;;;4099236;29;20493;-54
2023/05/04 01:31:55;;;;;;;4.88;3.22;;;15.10;91.20;;;;;;4115488;28;20711;-53
2023/05/04 01:33:58;;;;;;;5.40;3.33;;;15.10;91.60;;;;;;4114863;28;20105;-54
2023/05/04 01:36:00;;;;;;;6.78;3.03;;;15.10;91.40;;;;;;4116020;28;20105;-52
2023/05/04 01:38:04;;;;;;;9.45;3.00;;;15.20;91.80;;;;;;4098695;28;20208;-53
2023/05/04 01:40:07;;;;;;;9.37;3.40;;;15.20;91.30;;;;;;4115616;28;20069;-52
2023/05/04 01:42:10;;;;;;;8.00;3.50;;;15.20;91.30;;;;;;4098426;28;20043;-51
2023/05/04 01:44:12;;;;;;;5.45;2.72;;;15.20;91.30;;;;;;4115062;28;20075;-52
2023/05/04 01:46:14;;;;;;;6.75;3.50;;;15.20;92.10;;;;;;4115543;28;20125;-61
2023/05/04 01:48:16;;;;;;;7.90;3.90;;;15.20;91.50;;;;;;4115786;28;20127;-51
2023/05/04 01:50:18;;;;;;;8.13;3.53;;;15.20;91.40;;;;;;4115773;28;20456;-53
2023/05/04 01:52:20;;;;;;;4.53;2.90;;;15.20;91.70;;;;;;4115198;28;20102;-54
2023/05/04 01:54:23;;;;;;;8.20;3.35;;;15.20;91.50;;;;;;4114612;28;20122;-53
2023/05/04 01:56:25;;;;;;;7.65;3.13;;;15.20;91.60;;;;;;4115497;28;20042;-54
2023/05/04 01:58:28;;;;;;;7.72;3.25;;;15.30;91.90;;;;;;4115297;28;20054;-54
2023/05/04 02:00:30;;;;;;;6.95;3.42;;;15.20;91.60;;;;;;4114977;28;20047;-53
2023/05/04 02:02:32;;;;;;;10.95;3.97;;;15.20;91.50;;;;;;4115236;28;20050;-53
2023/05/04 02:04:34;;;;;;;7.57;3.20;;;15.30;91.50;;;;;;4114340;28;20050;-54
2023/05/04 02:06:36;;;;;;;4.80;3.60;;;15.20;91.50;;;;;;4115465;28;20548;-60
2023/05/04 02:08:39;;;;;;;5.60;3.53;;;15.30;91.60;;;;;;4115273;28;20138;-53
2023/05/04 02:10:42;;;;;;;5.47;3.10;;;15.30;91.50;;;;;;4115382;28;20050;-53
2023/05/04 02:12:45;;;;;;;8.20;3.47;;;15.30;91.40;;;;;;4115471;28;20051;-56
2023/05/04 02:14:47;;;;;;;4.70;3.17;;;15.30;91.70;;;;;;4114461;28;20424;-54
2023/05/04 02:16:49;;;;;;;9.15;3.30;;;15.30;91.60;;;;;;4115118;28;20046;-54
2023/05/04 02:18:51;;;;;;;6.20;3.30;;;15.20;91.60;;;;;;4115257;28;20062;-54
2023/05/04 02:20:53;;;;;;;7.78;3.72;;;15.20;91.70;;;;;;4115214;28;20485;-55
2023/05/04 02:22:55;;;;;;;6.40;3.40;;;15.20;91.60;;;;;;4114183;28;20058;-54
2023/05/04 02:25:00;;;;;;;4.47;3.10;;;15.20;91.70;;;;;;4114942;28;20038;-52
2023/05/04 02:27:03;;;;;;;;;;;15.20;91.90;;;;;;4113435;28;20047;-51
2023/05/04 02:29:05;;;;;;;6.93;3.80;;;15.20;91.80;;;;;;4115343;28;19926;-54
2023/05/04 02:31:07;;;;;;;8.80;3.25;;;15.20;91.70;;;;;;4114912;28;20043;-52
2023/05/04 02:33:10;;;;;;;6.05;3.80;;;15.20;91.70;;;;;;4114306;28;20081;-51
2023/05/04 02:35:13;;;;;;;7.03;3.92;;;15.20;91.70;;;;;;4098044;28;20114;-54
2023/05/04 02:37:15;;;;;;;5.15;3.47;;;15.10;91.60;;;;;;4115039;28;20085;-54
2023/05/04 02:39:19;;;;;;;8.63;4.32;;;15.10;91.90;;;;;;4115261;28;20051;-54
2023/05/04 02:41:21;;;;;;;8.35;3.90;;;15.10;91.80;;;;;;4115154;28;20043;-54
2023/05/04 02:43:25;;;;;;;8.13;4.00;;;14.90;92.00;;;;;;4114275;28;20054;-53
2023/05/04 02:45:27;;;;;;;5.72;3.92;;;14.90;92.10;;;;;;4114655;28;20047;-51
2023/05/04 02:47:29;;;;;;;5.20;3.90;;;14.90;92.20;;;;;;4114988;28;20050;-52
2023/05/04 02:49:32;;;;;;;7.35;4.47;;;14.90;92.10;;;;;;4115114;28;20416;-51
2023/05/04 02:51:34;;;;;;;8.90;5.05;;;14.90;92.10;;;;;;4115106;28;20126;-51
2023/05/04 02:53:36;;;;;;;7.85;4.57;;;14.90;92.20;;;;;;4113875;28;20043;-52
2023/05/04 02:55:38;;;;;;;10.55;5.07;;;14.80;92.20;;;;;;4114768;28;20489;-54
2023/05/04 02:57:40;;;;;;;7.80;5.38;;;14.80;92.30;;;;;;4114908;28;20050;-52
2023/05/04 02:59:43;;;;;;;9.27;4.93;;;14.90;92.30;;;;;;4114783;28;20078;-51
2023/05/04 03:01:45;;;;;;;7.18;4.70;;;14.80;92.50;;;;;;4114928;28;20057;-51
2023/05/04 03:03:48;;;;;;;8.45;4.88;;;14.90;92.20;;;;;;4113820;28;20089;-51
2023/05/04 03:05:50;;;;;;;10.75;4.50;;;14.80;92.40;;;;;;4097643;29;20138;-51
2023/05/04 03:07:52;;;;;;;8.25;4.43;;;14.90;92.30;;;;;;4116904;28;20050;-51
2023/05/04 03:09:54;;;;;;;8.20;4.35;;;14.90;92.50;;;;;;4117773;28;20121;-54
2023/05/04 03:11:56;;;;;;;7.35;4.75;;;14.90;92.60;;;;;;4117752;28;20125;-53
2023/05/04 03:13:58;;;;;;;7.20;4.20;;;14.80;92.60;;;;;;4099295;29;20055;-54
2023/05/04 03:16:01;;;;;;;7.88;4.45;;;14.70;92.60;;;;;;4117674;28;20138;-58
2023/05/04 03:18:03;;;;;;;8.55;4.60;;;14.80;92.70;;;;;;4117511;28;20537;-52
2023/05/04 03:20:06;;;;;;;7.55;5.32;;;14.80;92.70;;;;;;4117911;28;20066;-55
2023/05/04 03:22:09;;;;;;;8.80;5.03;;;14.80;92.60;;;;;;4117602;28;20114;-54
2023/05/04 03:24:11;;;;;;;11.45;5.18;;;14.80;92.60;;;;;;4116756;28;20508;-54
2023/05/04 03:26:13;;;;;;;15.38;5.75;;;14.90;92.50;;;;;;4114201;28;20047;-53
2023/05/04 03:28:15;;;;;;;13.73;5.07;;;14.90;92.50;;;;;;4117598;28;20077;-54
2023/05/04 03:30:18;;;;;;;11.13;5.05;;;14.80;92.50;;;;;;4117641;28;20058;-55
2023/05/04 03:32:21;;;;;;;8.05;5.18;;;14.80;92.50;;;;;;4117631;28;20093;-54
2023/05/04 03:34:23;;;;;;;8.15;4.85;;;14.70;92.60;;;;;;4116419;28;20050;-53
2023/05/04 03:36:25;;;;;;;8.00;4.80;;;14.70;92.60;;;;;;4117363;28;20085;-54
2023/05/04 03:38:27;;;;;;;13.85;4.80;;;14.60;92.80;;;;;;4117664;28;20074;-52
2023/05/04 03:40:30;;;;;;;6.78;4.68;;;14.70;92.70;;;;;;4117657;28;20051;-53
2023/05/04 03:42:32;;;;;;;11.07;5.20;;;14.70;92.80;;;;;;4117014;28;20043;-54
2023/05/04 03:44:34;;;;;;;10.48;5.20;;;14.70;92.70;;;;;;4116687;28;20396;-54
2023/05/04 03:46:36;;;;;;;9.43;4.75;;;14.60;92.70;;;;;;4117519;28;20074;-53
2023/05/04 03:48:40;;;;;;;9.30;5.32;;;14.60;92.90;;;;;;4117935;28;20412;-55
2023/05/04 03:50:45;;;;;;;6.57;4.40;;;14.50;92.90;;;;;;4117541;28;20617;-54
2023/05/04 03:52:47;;;;;;;5.70;4.13;;;14.60;93.10;;;;;;4117674;28;20543;-51
2023/05/04 03:54:49;;;;;;;8.02;4.43;;;14.60;93.00;;;;;;4116524;28;20051;-53
2023/05/04 03:56:51;;;;;;;8.25;4.70;;;14.70;93.10;;;;;;4117449;28;20400;-56
2023/05/04 03:58:53;;;;;;;9.50;5.20;;;14.70;93.20;;;;;;4117434;28;20122;-51
2023/05/04 04:00:55;;;;;;;11.13;4.85;;;14.60;93.40;;;;;;4116895;28;20106;-51
2023/05/04 04:02:57;;;;;;;8.40;4.55;;;14.70;93.30;;;;;;4116174;28;20047;-51
2023/05/04 04:05:00;;;;;;;11.80;5.10;;;14.70;93.10;;;;;;4116086;28;20050;-51
2023/05/04 04:07:03;;;;;;;7.90;5.10;;;14.70;92.90;;;;;;4116876;28;20043;-51
2023/05/04 04:09:05;;;;;;;12.98;5.10;;;14.80;92.90;;;;;;4117047;28;20473;-52
2023/05/04 04:11:07;;;;;;;8.23;5.00;;;14.70;92.90;;;;;;4116744;28;20051;-51
2023/05/04 04:13:09;;;;;;;10.15;5.13;;;14.70;92.90;;;;;;4116737;28;20039;-51
2023/05/04 04:15:11;;;;;;;10.77;5.07;;;14.70;92.90;;;;;;4115982;28;20114;-51
2023/05/04 04:17:13;;;;;;;7.93;4.80;;;14.60;92.90;;;;;;4116810;28;20074;-51
2023/05/04 04:19:16;;;;;;;9.70;5.22;;;14.50;93.20;;;;;;4115524;28;20142;-54
2023/05/04 04:21:20;;;;;;;8.10;4.85;;;14.60;93.10;;;;;;4116762;28;20102;-54
2023/05/04 04:23:23;;;;;;;8.15;4.47;;;14.50;93.30;;;;;;4116156;28;20552;-54
2023/05/04 04:25:25;;;;;;;10.77;5.18;;;14.60;93.30;;;;;;4110035;28;20131;-53
2023/05/04 04:27:27;;;;;;;6.88;4.82;;;14.60;93.20;;;;;;4116726;28;20089;-54
2023/05/04 04:29:29;;;;;;;7.68;4.78;;;14.50;93.30;;;;;;4116887;28;20382;-52
2023/05/04 04:31:32;;;;;;;10.60;4.78;;;14.60;93.30;;;;;;4116729;28;20485;-52
2023/05/04 04:33:35;;;;;;;11.52;4.75;;;14.60;93.50;;;;;;4115970;28;20050;-52
2023/05/04 04:35:37;;;;;;;8.38;4.47;;;14.60;93.30;;;;;;4099326;28;20444;-53
2023/05/04 04:37:41;;;;;;;11.18;4.65;;;14.60;93.30;;;;;;4116789;28;20553;-51
2023/05/04 04:39:43;;;;;;;13.27;5.32;;;14.60;93.40;;;;;;4116626;28;20051;-52
2023/05/04 04:41:45;;;;;;;10.20;4.60;;;14.60;93.20;;;;;;4116499;28;20050;-52
2023/05/04 04:43:47;;;;;;;10.43;4.97;;;14.70;93.40;;;;;;4115486;28;20054;-52
2023/05/04 04:45:49;;;;;;;16.08;5.70;;;14.60;93.20;;;;;;4116512;28;20053;-51
2023/05/04 04:47:51;;;;;;;16.85;5.85;;;14.70;93.10;;;;;;4116218;28;20416;-51
2023/05/04 04:49:53;;;;;;;13.20;5.85;;;14.60;93.20;;;;;;4116251;28;20076;-53
2023/05/04 04:51:56;;;;;;;10.13;5.28;;;14.60;93.20;;;;;;4116616;28;20054;-52
2023/05/04 04:53:59;;;;;;;12.13;5.10;;;14.50;93.30;;;;;;4115780;28;20055;-52
2023/05/04 04:56:02;;;;;;;10.80;5.30;;;14.40;93.40;;;;;;4098967;29;20051;-57
2023/05/04 04:58:04;;;;;;;7.82;4.97;;;14.50;93.40;;;;;;4116516;28;20050;-54
2023/05/04 05:00:08;;;;;;;11.45;5.25;;;14.40;93.50;;;;;;4116170;28;20125;-54
2023/05/04 05:02:11;;;;;;;8.60;5.72;;;14.50;93.40;;;;;;4116132;28;20062;-54
2023/05/04 05:04:13;;;;;;;17.23;5.57;;;14.50;93.30;;;;;;4115113;28;20382;-54
2023/05/04 05:06:15;;;;;;;10.52;5.35;;;14.30;93.50;;;;;;4098865;28;20058;-54
2023/05/04 05:08:17;;;;;;;18.02;5.45;;;14.30;93.60;;;;;;4116358;28;20051;-55
2023/05/04 05:10:21;;;;;;;9.15;4.95;;;14.30;93.70;;;;;;4115913;28;20404;-55
2023/05/04 05:12:23;;;;;;;10.25;5.03;;;14.30;93.70;;;;;;4116046;28;20065;-54
2023/05/04 05:14:26;;;;;;;13.40;5.63;;;14.30;93.70;;;;;;4114888;28;20280;-55
2023/05/04 05:16:28;;;;;;;13.30;4.70;;;14.30;93.70;;;;;;4116143;28;20049;-54
2023/05/04 05:18:31;;;;;;;10.75;5.15;;;14.30;93.60;;;;;;4115876;28;20093;-54
2023/05/04 05:20:33;;;;;;;6.97;4.40;;;14.30;93.60;;;;;;4115995;28;20551;-54
2023/05/04 05:22:35;;;;;;;6.80;4.90;;;14.40;93.60;;;;;;4115833;28;20059;-53
2023/05/04 05:24:37;;;;;;;13.20;4.93;;;14.30;93.60;;;;;;4114644;28;20047;-53
2023/05/04 05:26:41;;;;;;;13.43;5.43;;;14.20;93.70;;;;;;4118416;28;20042;-51
2023/05/04 05:28:43;;;;;;;12.05;5.30;;;14.20;93.80;;;;;;4115898;28;20138;-52
2023/05/04 05:30:45;;;;;;;9.60;5.60;;;14.40;93.80;;;;;;4115559;28;20062;-51
2023/05/04 05:32:47;;;;;;;8.80;4.07;;;14.40;93.70;;;;;;4115628;28;20050;-52
2023/05/04 05:34:50;;;;;;;7.53;5.13;;;14.40;93.60;;;;;;4114900;28;20105;-53
2023/05/04 05:36:53;;;;;;;14.82;5.15;;;14.40;93.70;;;;;;4115816;28;20054;-53
2023/05/04 05:38:54;;;;;;;13.70;5.55;;;14.30;93.90;;;;;;4115608;28;20527;-51
2023/05/04 05:40:56;;;;;;;6.90;4.85;;;14.40;93.70;;;;;;4116497;28;20051;-54
2023/05/04 05:43:00;;;;;;;11.82;5.30;;;14.40;93.80;;;;;;4115512;28;20122;-54
2023/05/04 05:45:03;;;;;;;10.27;5.25;;;14.40;93.80;;;;;;4114573;28;20420;-53
2023/05/04 05:47:05;;;;;;;9.50;5.55;;;14.50;93.70;;;;;;4115702;28;20082;-54
2023/05/04 05:49:07;;;;;;;15.65;5.65;;;14.50;93.60;;;;;;4098287;28;20056;-54
2023/05/04 05:51:10;;;;;;;13.50;5.30;;;14.40;93.70;;;;;;4098230;29;20129;-53
2023/05/04 05:53:12;;;;;;;10.27;5.35;;;14.40;93.70;;;;;;4115108;28;20051;-52
2023/05/04 05:55:14;;;;;;;7.65;4.65;;;14.50;93.70;;;;;;4114485;28;20046;-53
2023/05/04 05:57:16;;;;;;;7.53;4.03;;;14.60;93.70;;;;;;4115351;28;20050;-53
2023/05/04 05:59:20;;;;;;;11.98;4.50;;;14.70;93.80;;;;;;4115716;28;20500;-54
2023/05/04 06:01:22;;;;;;;6.32;3.92;;;14.80;93.90;;;;;;4115125;28;20154;-53
2023/05/04 06:03:25;;;;;;;7.68;4.80;;;14.80;94.00;;;;;;4115291;28;20131;-54
2023/05/04 06:05:27;;;;;;;9.00;5.03;;;14.90;93.60;;;;;;4114440;28;20473;-53
2023/05/04 06:07:29;;;;;;;9.05;4.38;;;14.90;94.00;;;;;;4114859;28;20047;-51
2023/05/04 06:09:31;;;;;;;7.68;4.80;;;14.90;94.00;;;;;;4115356;28;20053;-53
2023/05/04 06:11:33;;;;;;;18.08;4.55;;;15.00;93.80;;;;;;4115154;28;20050;-51
2023/05/04 06:13:35;;;;;;;8.52;4.82;;;15.00;93.60;;;;;;4114868;28;20043;-52
2023/05/04 06:15:39;;;;;;;9.95;4.60;;;15.10;93.60;;;;;;4114341;28;20070;-54
2023/05/04 06:17:41;;;;;;;9.82;4.68;;;15.20;93.30;;;;;;4115271;28;20515;-54
2023/05/04 06:19:44;;;;;;;19.88;5.78;;;15.20;93.40;;;;;;4115112;28;20473;-51
2023/05/04 06:21:48;;;;;;;16.00;5.10;;;15.30;93.00;;;;;;4114752;28;20504;-53
2023/05/04 06:23:50;;;;;;;14.57;5.30;;;15.30;92.70;;;;;;4114192;28;20051;-51
2023/05/04 06:25:52;;;;;;;11.27;4.97;;;15.30;92.80;;;;;;4108726;28;20045;-53
2023/05/04 06:27:54;;;;;;;12.70;5.60;;;15.30;92.70;;;;;;4115475;28;20440;-51
2023/05/04 06:29:56;;;;;;;14.95;5.47;;;15.40;92.70;;;;;;4115357;28;20051;-51
2023/05/04 06:32:00;;;;;;;14.95;5.18;;;15.40;92.50;;;;;;4115190;28;20131;-52
2023/05/04 06:34:02;;;;;;;18.38;5.63;;;15.30;92.70;;;;;;4114422;28;20058;-51
2023/05/04 06:36:04;;;;;;;11.40;5.10;;;15.40;92.70;;;;;;4114721;28;20134;-52
2023/05/04 06:38:06;;;;;;;11.05;5.30;;;15.40;92.50;;;;;;4115048;28;20146;-52
2023/05/04 06:40:09;;;;;;;8.85;4.68;;;15.50;92.50;;;;;;4115250;28;20047;-51
2023/05/04 06:42:11;;;;;;;19.90;6.05;;;15.70;92.70;;;;;;4115858;28;20130;-54
2023/05/04 06:44:14;;;;;;;12.55;4.68;;;15.70;92.20;;;;;;4117146;28;20117;-53
2023/05/04 06:46:16;;;;;;;13.40;4.90;;;15.80;92.20;;;;;;4118072;28;20463;-53
2023/05/04 06:48:19;;;;;;;8.70;4.80;;;15.90;92.40;;;;;;4118376;28;20405;-53
2023/05/04 06:50:22;;;;;;;15.23;5.35;;;16.00;91.90;;;;;;4118279;28;20051;-53
2023/05/04 06:52:28;;;;;;;13.73;5.32;;;16.00;91.70;;;;;;4118278;28;20497;-53
2023/05/04 06:54:31;;;;;;;12.02;4.60;;;16.20;91.90;;;;;;4116370;28;20058;-58
2023/05/04 06:56:33;;;;;;;10.27;4.22;;;16.40;92.00;;;;;;4118067;28;20058;-53
2023/05/04 06:58:35;;;;;;;7.25;3.92;;;16.50;91.80;;;;;;4118078;28;20094;-53
2023/05/04 07:00:38;;;;;;;9.93;4.68;;;16.70;92.00;;;;;;4118138;28;20543;-53
2023/05/04 07:02:39;;;;;;;8.27;4.50;;;16.80;91.10;;;;;;4118664;28;20098;-53
2023/05/04 07:04:43;;;;;;;11.13;4.82;;;17.00;91.80;;;;;;4117166;28;20074;-53
2023/05/04 07:06:45;;;;;;;7.88;4.15;;;17.10;91.20;;;;;;4117898;28;20443;-53
2023/05/04 07:08:47;;;;;;;7.00;4.40;;;17.30;91.00;;;;;;4118073;28;20464;-53
2023/05/04 07:10:49;;;;;;;8.40;3.70;;;17.40;90.60;;;;;;4117888;28;20126;-53
2023/05/04 07:12:51;;;;;;;4.70;3.35;;;17.60;90.80;;;;;;4118013;28;20457;-53
2023/05/04 07:14:54;;;;;;;7.50;4.05;;;17.60;90.80;;;;;;4116293;28;20043;-54
2023/05/04 07:16:55;;;;;;;10.57;3.97;;;17.60;90.40;;;;;;4118273;28;20473;-53
2023/05/04 07:18:57;;;;;;;8.50;4.13;;;17.70;90.30;;;;;;4117826;28;20051;-53
2023/05/04 07:21:01;;;;;;;14.75;3.97;;;17.90;90.20;;;;;;4117575;28;20043;-53
2023/05/04 07:23:23;;;;;;;13.07;3.95;;;17.80;90.20;;;;;;4117879;28;20137;-53
2023/05/04 07:25:26;;;;;;;10.02;4.32;;;18.00;89.70;;;;;;4117412;28;20057;-59
2023/05/04 07:27:29;;;;;;;6.95;3.70;;;18.10;90.40;;;;;;4117981;28;20117;-51
2023/05/04 07:29:31;;;;;;;7.90;4.10;;;18.20;90.40;;;;;;4117722;28;20043;-51
2023/05/04 07:31:33;;;;;;;7.25;3.78;;;18.30;89.70;;;;;;4100596;28;20047;-52
2023/05/04 07:33:35;;;;;;;6.63;3.90;;;18.40;90.10;;;;;;4117630;28;20393;-50
2023/05/04 07:35:37;;;;;;;7.07;3.92;;;18.40;89.60;;;;;;4116300;28;20059;-53
2023/05/04 07:37:41;;;;;;;5.47;3.55;;;18.70;90.10;;;;;;4117548;28;20059;-52
2023/05/04 07:39:43;;;;;;;11.95;3.92;;;19.00;89.30;;;;;;4117674;28;20485;-53
2023/05/04 07:41:45;;;;;;;5.68;3.50;;;19.10;88.40;;;;;;4117352;28;20109;-54
2023/05/04 07:43:50;;;;;;;7.93;4.22;;;19.10;87.30;;;;;;4117590;28;20069;-52
2023/05/04 07:45:52;;;;;;;8.93;3.70;;;19.30;88.80;;;;;;4116800;28;20050;-53
2023/05/04 07:47:55;;;;;;;5.40;3.72;;;19.30;87.60;;;;;;4117623;28;20062;-51
2023/05/04 07:49:57;;;;;;;9.00;3.13;;;19.40;88.00;;;;;;4117237;28;20083;-53
2023/05/04 07:51:59;;;;;;;8.77;3.25;;;19.40;88.50;;;;;;4117204;28;20061;-53
2023/05/04 07:54:02;;;;;;;12.35;3.75;;;19.40;87.70;;;;;;4116450;28;20517;-52
2023/05/04 07:56:10;;;;;;;7.50;3.25;;;19.50;87.70;;;;;;4117027;28;20047;-52
2023/05/04 07:58:14;;;;;;;9.38;3.95;;;19.70;88.20;;;;;;4117028;28;20050;-51
2023/05/04 08:00:18;;;;;;;8.27;3.30;;;19.80;88.00;;;;;;4117390;28;20453;-51
2023/05/04 08:02:20;;;;;;;7.43;3.08;;;19.80;87.80;;;;;;4117152;28;20043;-53
2023/05/04 08:04:23;;;;;;;7.43;3.75;;;19.70;86.50;;;;;;4116185;28;20047;-53
2023/05/04 08:06:25;;;;;;;5.03;3.28;;;19.60;87.40;;;;;;4117044;28;20373;-54
2023/05/04 08:08:27;;;;;;;4.68;3.33;;;19.70;87.50;;;;;;4099854;29;20489;-53
2023/05/04 08:10:35;;;;;;;5.90;3.47;;;19.80;87.60;;;;;;4117380;28;20481;-53
2023/05/04 08:12:39;;;;;;;7.43;3.40;;;19.90;87.10;;;;;;4114840;28;20460;-54
2023/05/04 08:14:41;;;;;;;4.72;3.30;;;20.00;87.10;;;;;;4115522;28;20122;-54
2023/05/04 08:16:43;;;;;;;4.13;2.83;;;19.90;87.50;;;;;;4116364;28;20138;-53
2023/05/04 08:18:45;;;;;;;7.20;3.20;;;20.00;87.30;;;;;;4114271;28;20068;-55
2023/05/04 08:20:47;;;;;;;11.93;3.67;;;19.80;86.70;;;;;;4116114;28;20594;-59
2023/05/04 08:22:49;;;;;;;7.63;3.50;;;20.00;87.40;;;;;;4115677;28;20158;-55
2023/05/04 08:24:51;;;;;;;8.68;3.40;;;19.90;86.00;;;;;;4115210;28;20049;-54
2023/05/04 08:26:55;;;;;;;6.97;3.70;;;19.90;87.30;;;;;;4115713;28;20089;-62
2023/05/04 08:29:09;;;;;;;;;;;20.00;87.40;;;;;;4099914;28;20047;-53
2023/05/04 08:31:12;;;;;;;11.63;4.03;;;19.90;87.30;;;;;;4115725;28;19922;-54
2023/05/04 08:33:14;;;;;;;6.18;4.22;;;19.90;87.10;;;;;;4115701;28;20042;-54
2023/05/04 08:35:19;;;;;;;12.82;4.22;;;19.90;86.40;;;;;;4115087;28;20054;-54
2023/05/04 08:37:21;;;;;;;8.60;4.10;;;19.90;86.80;;;;;;4113824;28;20079;-54
2023/05/04 08:39:23;;;;;;;8.93;4.07;;;19.80;86.80;;;;;;4115886;28;20094;-54
2023/05/04 08:41:25;;;;;;;13.02;3.80;;;19.70;87.40;;;;;;4115619;28;20066;-54
2023/05/04 08:43:29;;;;;;;7.22;4.03;;;19.90;87.30;;;;;;4115672;28;20051;-54
2023/05/04 08:45:32;;;;;;;18.33;4.28;;;20.10;87.80;;;;;;4114451;28;20051;-53
2023/05/04 08:47:34;;;;;;;7.65;4.20;;;20.20;86.70;;;;;;4115446;28;20448;-54
2023/05/04 08:49:36;;;;;;;9.27;4.15;;;20.30;86.60;;;;;;4115565;28;20100;-51
2023/05/04 08:51:39;;;;;;;12.80;4.32;;;20.50;86.90;;;;;;4115648;28;20074;-52
2023/05/04 08:53:44;;;;;;;8.45;4.18;;;20.60;86.60;;;;;;4113348;28;20053;-52
2023/05/04 08:55:48;;;;;;;5.72;4.55;;;20.50;86.70;;;;;;4114616;28;20093;-51
2023/05/04 08:57:50;;;;;;;10.30;4.20;;;20.60;86.60;;;;;;4115324;28;20074;-51
2023/05/04 08:59:55;;;;;;;8.23;3.90;;;20.60;86.70;;;;;;4115447;28;20152;-53
2023/05/04 09:02:00;;;;;;;;;;;20.60;86.50;;;;;;4116131;28;20050;-54
2023/05/04 09:04:03;;;;;;;4.72;3.15;;;20.50;85.30;;;;;;4116390;28;19926;-55
2023/05/04 09:06:07;;;;;;;10.90;4.75;;;20.60;86.10;;;;;;4114715;28;20050;-57
2023/05/04 09:08:09;;;;;;;6.22;3.80;;;20.70;85.60;;;;;;4113280;28;20155;-55
2023/05/04 09:10:11;;;;;;;7.38;3.83;;;20.70;85.50;;;;;;4105099;28;20504;-56
2023/05/04 09:12:13;;;;;;;7.60;4.43;;;20.80;86.00;;;;;;4109960;28;20047;-54
2023/05/04 09:14:16;;;;;;;11.13;3.75;;;20.90;86.80;;;;;;4113366;28;20138;-56
2023/05/04 09:16:19;;;;;;;7.32;3.75;;;21.10;86.10;;;;;;4110843;28;20043;-55
2023/05/04 09:18:22;;;;;;;9.38;4.03;;;21.20;86.20;;;;;;4108901;28;20062;-54
2023/05/04 09:20:24;;;;;;;5.70;3.53;;;21.20;85.50;;;;;;4115322;28;20054;-52
2023/05/04 09:22:27;;;;;;;7.78;4.10;;;21.30;86.10;;;;;;4121612;28;20050;-56
2023/05/04 09:24:30;;;;;;;9.65;4.40;;;21.30;85.90;;;;;;4114427;28;20051;-54
2023/05/04 09:26:33;;;;;;;6.22;4.03;;;21.20;85.10;;;;;;4121502;28;20139;-51
2023/05/04 09:28:37;;;;;;;7.72;4.10;;;21.20;85.40;;;;;;4104821;28;20043;-52
2023/05/04 09:30:39;;;;;;;10.73;4.07;;;21.10;85.50;;;;;;4114597;28;20050;-53
2023/05/04 09:32:46;;;;;;;6.82;3.97;;;21.10;85.80;;;;;;4110776;28;20152;-52
2023/05/04 09:34:49;;;;;;;10.32;4.30;;;21.30;85.70;;;;;;4100205;28;20753;-53
2023/05/04 09:36:58;;;;;;;6.57;3.95;;;21.10;85.30;;;;;;4100456;28;20043;-54
2023/05/04 09:39:09;;;;;;;8.85;4.22;;;21.10;86.20;;;;;;4105284;28;20125;-53
2023/05/04 09:41:12;;;;;;;6.95;3.75;;;21.00;85.80;;;;;;4115299;28;20450;-54
2023/05/04 09:43:14;;;;;;;9.85;4.25;;;20.90;85.10;;;;;;4112200;28;20051;-54
2023/05/04 09:45:16;;;;;;;10.10;3.97;;;20.90;86.90;;;;;;4098311;28;20472;-54
2023/05/04 09:47:18;;;;;;;12.93;3.92;;;20.90;86.20;;;;;;4108684;28;20465;-53
2023/05/04 09:49:31;;;;;;;8.40;4.20;;;21.10;86.70;;;;;;4114268;28;20129;-55
2023/05/04 09:51:34;;;;;;;9.65;4.22;;;21.30;87.30;;;;;;4113305;28;20050;-54
2023/05/04 09:53:39;;;;;;;9.25;4.25;;;21.50;86.40;;;;;;4110154;28;20050;-53
2023/05/04 09:55:44;;;;;;;9.60;4.50;;;21.60;84.50;;;;;;4097471;28;20138;-56
2023/05/04 09:57:48;;;;;;;11.30;3.60;;;21.50;85.30;;;;;;4101116;28;20073;-53
2023/05/04 09:59:51;;;;;;;8.02;3.88;;;21.70;84.80;;;;;;4106910;28;20114;-54
2023/05/04 10:01:53;;;;;;;7.63;3.92;;;21.90;85.10;;;;;;4098534;29;20126;-53
2023/05/04 10:03:56;;;;;;;7.00;3.60;;;22.10;84.20;;;;;;4108641;28;20568;-55
2023/05/04 10:06:03;;;;;;;7.97;3.75;;;22.10;83.90;;;;;;4097770;28;20051;-53
2023/05/04 10:08:05;;;;;;;6.97;3.83;;;22.30;84.10;;;;;;4100541;28;20450;-54
2023/05/04 10:10:09;;;;;;;9.27;4.07;;;22.30;83.90;;;;;;4107244;28;20051;-55
2023/05/04 10:12:11;;;;;;;6.90;2.97;;;22.40;83.60;;;;;;4106201;28;20046;-54
2023/05/04 10:14:13;;;;;;;12.60;3.55;;;22.50;81.30;;;;;;4109665;28;20043;-54
2023/05/04 10:16:28;;;;;;;15.43;4.70;;;22.60;83.10;;;;;;4110646;28;20628;-54
2023/05/04 10:18:43;;;;;;;11.20;3.67;;;22.80;83.50;;;;;;4101061;28;20138;-54
2023/05/04 10:21:05;;;;;;;;;;;23.00;81.60;;;;;;4110632;28;20169;-55
2023/05/04 10:23:24;;;;;;;8.07;3.88;;;22.90;81.90;;;;;;4111740;28;19934;-55
2023/05/04 10:25:51;;;;;;;12.82;3.88;;;22.90;82.80;;;;;;4116401;28;20046;-51
2023/05/04 10:28:05;;;;;;;18.45;4.00;;;22.80;81.90;;;;;;4129272;28;20423;-52
2023/05/04 10:30:09;;;;;;;8.98;3.53;;;23.10;81.60;;;;;;4102914;28;20062;-52
2023/05/04 10:32:18;;;;;;;17.45;3.92;;;23.10;81.00;;;;;;4114042;28;20504;-51
2023/05/04 10:34:25;;;;;;;9.07;3.92;;;23.30;82.30;;;;;;4107422;28;20044;-52
2023/05/04 10:36:38;;;;;;;6.93;2.72;;;23.40;80.60;;;;;;4107545;28;20482;-52
2023/05/04 10:38:41;;;;;;;6.88;3.10;;;23.50;80.60;;;;;;4112464;28;20134;-53
2023/05/04 10:40:47;;;;;;;6.95;3.28;;;23.50;79.80;;;;;;4110045;28;20047;-53